QTR71 OTHH-EDDF
Flight info
| Callsign | QTR71 |
|---|---|
| Flight time | N/A |
| Altitude | 28000 |
| Route | DATRI L564 BAT/N0492F290 L564 MIGMA/N0479F280 M628 AMBAG/N0485F400 M321 KSA T503 OVANO L768 FIRAS R655 KTN R785 NIKAS L619 VESAR UB545 MUT UL619 MAKOL DCT ARGES DCT OXDOC DCT BEGLA DCT UBUXI DCT DITIS DCT RAPET T170 GAPLA/N0418F240 T178 KERAX KERAX5A/25L |
| Aircraft | A359/H-SDE2E3GHIJ1J3J4J5LM1ORWXY/LB1D1 |
Departure
| Time | N/A |
|---|---|
| Airport | Hamad International Airport (OTHH) |
Arrival
| Time | 2026-05-06 17:45 |
|---|---|
| Airport | Frankfurt Main Airport (EDDF) |
| Time | Latitude | Longitude | Altitude | Speed | Heading |
|---|---|---|---|---|---|
| 2026-05-06 17:45 | 50.03868 | 8.57055 | 368 ft | 23 kts | 70° |
| 2026-05-06 17:45 | 50.03924 | 8.57284 | 372 ft | 23 kts | 69° |
| 2026-05-06 17:45 | 50.03982 | 8.57522 | 374 ft | 24 kts | 69° |
| 2026-05-06 17:46 | 50.04022 | 8.57691 | 376 ft | 26 kts | 70° |
| 2026-05-06 17:46 | 50.04110 | 8.58056 | 378 ft | 22 kts | 67° |
| 2026-05-06 17:46 | 50.04203 | 8.58181 | 376 ft | 15 kts | 27° |
| 2026-05-06 17:46 | 50.04237 | 8.58203 | 378 ft | 6 kts | 19° |
| 2026-05-06 17:47 | 50.04282 | 8.58202 | 376 ft | 0 kts | 342° |
| 2026-05-06 17:49 | 50.04301 | 8.58192 | 376 ft | 9 kts | 342° |
| 2026-05-06 17:49 | 50.04405 | 8.58136 | 376 ft | 20 kts | 340° |
| 2026-05-06 17:49 | 50.04491 | 8.58085 | 374 ft | 0 kts | 339° |
| 2026-05-06 17:52 | 50.04524 | 8.58047 | 377 ft | 14 kts | 304° |
| 2026-05-06 17:52 | 50.04509 | 8.57881 | 375 ft | 18 kts | 250° |
| 2026-05-06 17:53 | 50.04462 | 8.57682 | 374 ft | 21 kts | 249° |
| 2026-05-06 17:53 | 50.04404 | 8.57438 | 371 ft | 26 kts | 250° |
| 2026-05-06 17:53 | 50.04339 | 8.57168 | 371 ft | 28 kts | 250° |
| 2026-05-06 17:53 | 50.04279 | 8.56889 | 366 ft | 11 kts | 269° |
| 2026-05-06 17:54 | 50.04282 | 8.56873 | 366 ft | 4 kts | 291° |
| 2026-05-06 17:54 | 50.04334 | 8.56834 | 369 ft | 13 kts | 359° |
| 2026-05-06 17:54 | 50.04425 | 8.56848 | 371 ft | 15 kts | 8° |
| 2026-05-06 17:54 | 50.04534 | 8.56869 | 365 ft | 16 kts | 350° |
| 2026-05-06 17:55 | 50.04576 | 8.56840 | 366 ft | 11 kts | 334° |
| 2026-05-06 17:55 | 50.04599 | 8.56795 | 369 ft | 0 kts | 295° |
| 2026-05-06 17:56 | 50.04600 | 8.56793 | 369 ft | 3 kts | 296° |
| 2026-05-06 17:56 | 50.04602 | 8.56787 | 365 ft | 0 kts | 296° |